LTAZ Airport Information

Runway Information
Runway 11 Length 9842 ft width 148 ft
Elevation 3080 ft Threshold 0 ft Heading 117
Runway 29 Length 9842 ft Width 148 ft
Elevation 3100 ft Threshold 0 ft Heading 297
Airport Frequencies
Type APP Name ESENBOGA A Frequency 119.1 MHZ
Type TWR Name TWR Frequency 35.892 MHZ
Type TWR Name TWR Frequency 119 MHZ
Airport Navaids
Type VOR-DME Name Tuzkoy Frequency 115300 KHZ
Type NDB Name Tuzkoy Frequency 371 KHZ
Airport Weather Information & NOTAM
ADDS - METARS form results

(1846 UTC 15 December 2018)
Data provider http://aviationweather.gov/metar/data/
 
METAR text: LTAZ 151820Z 13008KT 9999 FEW040 BKN200 06/04 Q1023
Conditions at: LTAZ (NEVSEHIR , TR) observed 1820 UTC 15 December 2018
Temperature: 6.0°C (43°F)
Dewpoint: 4.0°C (39°F) [RH = 87%]
Pressure (altimeter): 30.21 inches Hg (1023.0 mb)
Winds: from the SE (130 degrees) at 9 MPH (8 knots; 4.1 m/s)
Visibility: 6 or more miles (10+ km)
Ceiling: 20000 feet AGL
Clouds: few clouds at 4000 feet AGL
broken clouds at 20000 feet AGL
Weather: no significant weather observed at this time

METAR text: LTAZ 151750Z 14010KT 9999 FEW040 BKN200 07/04 Q1023
Conditions at: LTAZ (NEVSEHIR , TR) observed 1750 UTC 15 December 2018
Temperature: 7.0°C (45°F)
Dewpoint: 4.0°C (39°F) [RH = 81%]
Pressure (altimeter): 30.21 inches Hg (1023.0 mb)
Winds: from the SE (140 degrees) at 12 MPH (10 knots; 5.1 m/s)
Visibility: 6 or more miles (10+ km)
Ceiling: 20000 feet AGL
Clouds: few clouds at 4000 feet AGL
broken clouds at 20000 feet AGL
Weather: no significant weather observed at this time

Forecast for: LTAZ (NEVSEHIR , TR)
Text: TAF LTAZ 151640Z 1518/1618 12012KT 9999 FEW040 BKN180
Forecast period: 1800 UTC 15 December 2018 to 1800 UTC 16 December 2018
Forecast type: FROM: standard forecast or significant change
Winds: from the ESE (120 degrees) at 14 MPH (12 knots; 6.2 m/s)
Visibility: 6 or more miles 10+ km)
Ceiling: 18000 feet AGL
Clouds: few clouds at 4000 feet AGL
broken clouds at 18000 feet AGL
Weather: no significant weather forecast for this period